Station Historical Data
Daily Summary for January 28, 2018 Units:  English    Metric   Both
« Previous Day
Next Day »
Daily Weekly Monthly Yearly Custom
  High: Low: Average:
Temperature: 42.9 °F 29.3 °F 34.8 °F
Dew Point: 33.7 °F 23.4 °F 28.8 °F
Humidity: 92% 60% 79%
Wind Speed: 8.0mph 0.0mph 3.1mph
Wind Gust: 17.0mph - -
Wind- - SSW
Pressure: 30.36 in 30.19 in -
Precipitation: 0.00 in    
Historical Graphs
 
 
Tabular Data for January 28, 2018
Time Temperature Dew Point Pressure Wind Wind Speed Wind Gust Humidity Rainfall Rate (Hourly)
00:04 36.2 °F 33.5 °F 30.19 in SW 6.0 mph 12.0 mph 90% 0.00 in
00:09 36.1 °F 33.7 °F 30.19 in SW 5.0 mph 12.0 mph 91% 0.00 in
00:14 36.0 °F 33.6 °F 30.19 in SW 5.0 mph 10.0 mph 91% 0.00 in
00:19 35.9 °F 33.5 °F 30.19 in SW 5.0 mph 10.0 mph 91% 0.00 in
00:24 35.7 °F 33.3 °F 30.19 in SW 5.0 mph 11.0 mph 91% 0.00 in
00:29 35.5 °F 33.1 °F 30.19 in SW 4.0 mph 11.0 mph 91% 0.00 in
00:34 35.3 °F 32.9 °F 30.19 in SW 6.0 mph 11.0 mph 91% 0.00 in
00:39 35.1 °F 32.7 °F 30.19 in SW 6.0 mph 11.0 mph 91% 0.00 in
00:44 34.9 °F 32.5 °F 30.19 in SW 6.0 mph 12.0 mph 91% 0.00 in
00:49 34.8 °F 32.4 °F 30.19 in WSW 4.0 mph 9.0 mph 91% 0.00 in
00:54 34.6 °F 32.2 °F 30.20 in SW 8.0 mph 12.0 mph 91% 0.00 in
00:59 34.6 °F 32.2 °F 30.20 in West 6.0 mph 11.0 mph 91% 0.00 in
01:04 34.6 °F 32.2 °F 30.20 in WSW 5.0 mph 9.0 mph 91% 0.00 in
01:09 34.6 °F 32.2 °F 30.20 in WSW 6.0 mph 12.0 mph 91% 0.00 in
01:14 34.5 °F 32.1 °F 30.20 in SW 6.0 mph 17.0 mph 91% 0.00 in
01:19 34.5 °F 32.1 °F 30.20 in SW 7.0 mph 17.0 mph 91% 0.00 in
01:24 34.5 °F 32.1 °F 30.20 in SW 7.0 mph 10.0 mph 91% 0.00 in
01:29 34.5 °F 32.1 °F 30.20 in SW 6.0 mph 12.0 mph 91% 0.00 in
01:34 34.4 °F 32.0 °F 30.20 in SW 6.0 mph 11.0 mph 91% 0.00 in
01:39 34.4 °F 32.3 °F 30.20 in West 3.0 mph 12.0 mph 92% 0.00 in
01:44 34.4 °F 32.3 °F 30.21 in SW 6.0 mph 12.0 mph 92% 0.00 in
01:49 34.3 °F 32.2 °F 30.20 in SW 6.0 mph 11.0 mph 92% 0.00 in
01:54 34.2 °F 32.1 °F 30.20 in South 2.0 mph 8.0 mph 92% 0.00 in
01:59 34.0 °F 31.9 °F 30.21 in WSW 8.0 mph 13.0 mph 92% 0.00 in
02:04 33.8 °F 31.7 °F 30.21 in SSW 3.0 mph 9.0 mph 92% 0.00 in
02:09 33.6 °F 31.5 °F 30.21 in SW 8.0 mph 11.0 mph 92% 0.00 in
02:14 33.5 °F 31.4 °F 30.21 in WSW 7.0 mph 11.0 mph 92% 0.00 in
02:19 33.4 °F 31.3 °F 30.22 in SW 5.0 mph 11.0 mph 92% 0.00 in
02:24 33.3 °F 31.2 °F 30.22 in SW 5.0 mph 12.0 mph 92% 0.00 in
02:29 33.3 °F 31.2 °F 30.22 in SW 5.0 mph 12.0 mph 92% 0.00 in
02:34 33.0 °F 30.9 °F 30.22 in SW 4.0 mph 8.0 mph 92% 0.00 in
02:39 32.9 °F 30.8 °F 30.23 in WSW 4.0 mph 10.0 mph 92% 0.00 in
02:44 32.8 °F 30.7 °F 30.23 in WSW 4.0 mph 7.0 mph 92% 0.00 in
02:49 32.8 °F 30.7 °F 30.23 in WSW 6.0 mph 8.0 mph 92% 0.00 in
02:54 32.9 °F 30.8 °F 30.23 in WSW 5.0 mph 9.0 mph 92% 0.00 in
02:59 32.7 °F 30.6 °F 30.23 in WSW 4.0 mph 11.0 mph 92% 0.00 in
03:04 32.5 °F 30.4 °F 30.23 in West 2.0 mph 7.0 mph 92% 0.00 in
03:09 32.2 °F 30.1 °F 30.23 in WSW 3.0 mph 7.0 mph 92% 0.00 in
03:14 31.7 °F 29.6 °F 30.23 in SW 4.0 mph 7.0 mph 92% 0.00 in
03:19 31.5 °F 29.4 °F 30.24 in WSW 3.0 mph 9.0 mph 92% 0.00 in
03:24 31.3 °F 29.2 °F 30.23 in SW 5.0 mph 9.0 mph 92% 0.00 in
03:29 31.4 °F 29.3 °F 30.23 in WSW 4.0 mph 9.0 mph 92% 0.00 in
03:34 31.4 °F 29.3 °F 30.23 in SW 3.0 mph 8.0 mph 92% 0.00 in
03:39 31.5 °F 29.4 °F 30.24 in SW 4.0 mph 8.0 mph 92% 0.00 in
03:45 31.6 °F 29.5 °F 30.24 in SW 3.0 mph 8.0 mph 92% 0.00 in
03:54 31.7 °F 29.6 °F 30.24 in SW 6.0 mph 7.0 mph 92% 0.00 in
03:59 31.7 °F 29.6 °F 30.24 in South 2.0 mph 7.0 mph 92% 0.00 in
04:04 31.7 °F 29.6 °F 30.24 in WSW 3.0 mph 7.0 mph 92% 0.00 in
04:09 31.7 °F 29.6 °F 30.24 in WSW 2.0 mph 7.0 mph 92% 0.00 in
04:14 31.7 °F 29.6 °F 30.24 in WSW 2.0 mph 5.0 mph 92% 0.00 in
04:19 31.7 °F 29.6 °F 30.24 in WSW 4.0 mph 5.0 mph 92% 0.00 in
04:24 31.7 °F 29.6 °F 30.24 in WSW 3.0 mph 6.0 mph 92% 0.00 in
04:29 31.8 °F 29.7 °F 30.24 in WSW 3.0 mph 7.0 mph 92% 0.00 in
04:34 31.8 °F 29.7 °F 30.24 in WSW 4.0 mph 7.0 mph 92% 0.00 in
04:39 31.8 °F 29.7 °F 30.24 in SW 3.0 mph 6.0 mph 92% 0.00 in
04:44 31.8 °F 29.7 °F 30.24 in SW 3.0 mph 6.0 mph 92% 0.00 in
04:49 31.9 °F 29.8 °F 30.24 in WSW 3.0 mph 6.0 mph 92% 0.00 in
04:54 31.9 °F 29.8 °F 30.24 in WSW 2.0 mph 5.0 mph 92% 0.00 in
04:59 31.9 °F 29.8 °F 30.24 in Calm   4.0 mph 92% 0.00 in
05:04 31.7 °F 29.6 °F 30.25 in WSW 2.0 mph 5.0 mph 92% 0.00 in
05:09 31.6 °F 29.5 °F 30.25 in WSW 2.0 mph 3.0 mph 92% 0.00 in
05:14 31.6 °F 29.5 °F 30.25 in WSW 3.0 mph 4.0 mph 92% 0.00 in
05:19 31.6 °F 29.5 °F 30.25 in WSW 1.0 mph 4.0 mph 92% 0.00 in
05:24 31.6 °F 29.5 °F 30.25 in WSW 1.0 mph 5.0 mph 92% 0.00 in
05:29 31.8 °F 29.7 °F 30.25 in WSW 2.0 mph 8.0 mph 92% 0.00 in
05:34 31.8 °F 29.7 °F 30.25 in WSW 3.0 mph 8.0 mph 92% 0.00 in
05:39 31.7 °F 29.6 °F 30.25 in WSW 2.0 mph 5.0 mph 92% 0.00 in
05:44 31.7 °F 29.6 °F 30.25 in WSW 2.0 mph 5.0 mph 92% 0.00 in
05:49 31.6 °F 29.5 °F 30.25 in SW 1.0 mph 4.0 mph 92% 0.00 in
05:54 31.4 °F 29.3 °F 30.25 in SW 2.0 mph 4.0 mph 92% 0.00 in
05:59 31.3 °F 29.2 °F 30.25 in SW 1.0 mph 3.0 mph 92% 0.00 in
06:04 31.1 °F 29.0 °F 30.25 in Calm   3.0 mph 92% 0.00 in
06:09 30.6 °F 28.3 °F 30.25 in Calm     91% 0.00 in
06:14 30.4 °F 28.4 °F 30.25 in Calm   4.0 mph 92% 0.00 in
06:19 30.6 °F 28.6 °F 30.26 in SW 2.0 mph 3.0 mph 92% 0.00 in
06:24 30.7 °F 28.7 °F 30.26 in Calm   4.0 mph 92% 0.00 in
06:29 30.4 °F 28.1 °F 30.26 in SW 1.0 mph 4.0 mph 91% 0.00 in
06:34 30.2 °F 27.9 °F 30.26 in Calm     91% 0.00 in
06:39 30.1 °F 27.8 °F 30.26 in Calm     91% 0.00 in
06:44 30.2 °F 27.9 °F 30.26 in Calm     91% 0.00 in
06:49 29.9 °F 27.6 °F 30.27 in Calm     91% 0.00 in
06:54 29.7 °F 27.4 °F 30.27 in Calm     91% 0.00 in
06:59 29.6 °F 27.3 °F 30.28 in Calm     91% 0.00 in
07:04 29.6 °F 27.3 °F 30.28 in Calm   3.0 mph 91% 0.00 in
07:09 29.6 °F 27.3 °F 30.28 in Calm   2.0 mph 91% 0.00 in
07:14 29.8 °F 27.5 °F 30.28 in Calm     91% 0.00 in
07:19 30.0 °F 27.4 °F 30.28 in SW 3.0 mph 5.0 mph 90% 0.00 in
07:24 30.4 °F 27.8 °F 30.28 in Calm   3.0 mph 90% 0.00 in
07:29 30.5 °F 27.9 °F 30.28 in SW 1.0 mph 3.0 mph 90% 0.00 in
07:34 30.6 °F 27.7 °F 30.28 in SW 1.0 mph 3.0 mph 89% 0.00 in
07:39 30.5 °F 27.6 °F 30.28 in SW 1.0 mph 3.0 mph 89% 0.00 in
07:44 30.3 °F 27.2 °F 30.28 in SW 1.0 mph 3.0 mph 88% 0.00 in
07:49 30.2 °F 27.1 °F 30.29 in SW 1.0 mph 4.0 mph 88% 0.00 in
07:54 30.3 °F 27.2 °F 30.28 in SW 1.0 mph 4.0 mph 88% 0.00 in
07:59 30.4 °F 27.0 °F 30.29 in SW 1.0 mph 3.0 mph 87% 0.00 in
08:04 30.4 °F 27.0 °F 30.29 in SW 1.0 mph 3.0 mph 87% 0.00 in
08:09 30.5 °F 26.8 °F 30.29 in Calm   3.0 mph 86% 0.00 in
08:14 30.5 °F 26.8 °F 30.29 in SW 1.0 mph 3.0 mph 86% 0.00 in
08:19 30.7 °F 27.0 °F 30.29 in SW 2.0 mph 4.0 mph 86% 0.00 in
08:24 31.0 °F 27.0 °F 30.29 in SW 2.0 mph 4.0 mph 85% 0.00 in
08:29 31.6 °F 27.6 °F 30.29 in SW 3.0 mph 6.0 mph 85% 0.00 in
08:34 32.3 °F 28.0 °F 30.30 in SW 5.0 mph 7.0 mph 84% 0.00 in
08:39 33.0 °F 28.1 °F 30.30 in WSW 3.0 mph 7.0 mph 82% 0.00 in
08:44 33.4 °F 28.2 °F 30.30 in WSW 3.0 mph 6.0 mph 81% 0.00 in
08:49 33.9 °F 28.4 °F 30.30 in WSW 3.0 mph 6.0 mph 80% 0.00 in
08:54 34.4 °F 28.2 °F 30.30 in SW 3.0 mph 8.0 mph 78% 0.00 in
08:59 35.0 °F 28.5 °F 30.30 in WSW 4.0 mph 8.0 mph 77% 0.00 in
09:04 35.4 °F 28.6 °F 30.30 in SSW 4.0 mph 9.0 mph 76% 0.00 in
09:09 35.8 °F 28.6 °F 30.30 in WSW 4.0 mph 9.0 mph 75% 0.00 in
09:14 36.2 °F 28.7 °F 30.30 in SW 3.0 mph 7.0 mph 74% 0.00 in
09:19 36.6 °F 28.8 °F 30.30 in SW 4.0 mph 7.0 mph 73% 0.00 in
09:24 36.9 °F 28.7 °F 30.30 in SW 5.0 mph 8.0 mph 72% 0.00 in
09:29 37.0 °F 28.5 °F 30.30 in West 4.0 mph 11.0 mph 71% 0.00 in
09:34 37.2 °F 28.3 °F 30.30 in SW 5.0 mph 9.0 mph 70% 0.00 in
09:39 37.5 °F 28.6 °F 30.30 in WSW 4.0 mph 9.0 mph 70% 0.00 in
09:44 38.1 °F 28.8 °F 30.30 in WSW 5.0 mph 9.0 mph 69% 0.00 in
09:49 38.3 °F 28.3 °F 30.30 in WSW 4.0 mph 9.0 mph 67% 0.00 in
09:54 38.0 °F 28.0 °F 30.30 in WSW 5.0 mph 10.0 mph 67% 0.00 in
09:59 37.9 °F 27.9 °F 30.30 in WSW 5.0 mph 10.0 mph 67% 0.00 in
10:04 37.9 °F 27.9 °F 30.31 in WSW 4.0 mph 11.0 mph 67% 0.00 in
10:09 38.3 °F 28.7 °F 30.31 in West 5.0 mph 9.0 mph 68% 0.00 in
10:14 38.5 °F 28.5 °F 30.31 in WSW 2.0 mph 10.0 mph 67% 0.00 in
10:19 39.0 °F 28.6 °F 30.31 in WSW 5.0 mph 10.0 mph 66% 0.00 in
10:24 39.1 °F 28.7 °F 30.31 in WSW 4.0 mph 9.0 mph 66% 0.00 in
10:29 39.1 °F 28.3 °F 30.31 in WSW 5.0 mph 9.0 mph 65% 0.00 in
10:34 39.4 °F 28.6 °F 30.31 in WSW 5.0 mph 9.0 mph 65% 0.00 in
10:39 39.8 °F 29.0 °F 30.31 in WSW 4.0 mph 10.0 mph 65% 0.00 in
10:44 39.9 °F 28.7 °F 30.31 in WSW 7.0 mph 10.0 mph 64% 0.00 in
10:49 39.8 °F 28.6 °F 30.31 in WSW 6.0 mph 11.0 mph 64% 0.00 in
10:54 39.8 °F 28.2 °F 30.31 in WSW 4.0 mph 12.0 mph 63% 0.00 in
10:59 39.7 °F 28.5 °F 30.31 in WSW 7.0 mph 11.0 mph 64% 0.00 in
11:04 39.8 °F 28.2 °F 30.31 in West 7.0 mph 12.0 mph 63% 0.00 in
11:09 40.1 °F 28.9 °F 30.31 in West 5.0 mph 11.0 mph 64% 0.00 in
11:14 40.0 °F 28.4 °F 30.31 in West 6.0 mph 12.0 mph 63% 0.00 in
11:19 40.3 °F 28.3 °F 30.31 in WSW 6.0 mph 14.0 mph 62% 0.00 in
11:24 40.7 °F 29.1 °F 30.31 in WSW 7.0 mph 14.0 mph 63% 0.00 in
11:29 41.1 °F 29.5 °F 30.31 in WSW 5.0 mph 13.0 mph 63% 0.00 in
11:34 40.6 °F 28.2 °F 30.31 in WSW 5.0 mph 12.0 mph 61% 0.00 in
11:39 40.7 °F 28.7 °F 30.31 in SW 4.0 mph 13.0 mph 62% 0.00 in
11:44 40.6 °F 28.6 °F 30.31 in West 7.0 mph 11.0 mph 62% 0.00 in
11:49 40.7 °F 28.7 °F 30.31 in SW 3.0 mph 11.0 mph 62% 0.00 in
11:54 41.3 °F 28.9 °F 30.31 in WSW 6.0 mph 11.0 mph 61% 0.00 in
11:59 41.0 °F 28.6 °F 30.31 in West 8.0 mph 10.0 mph 61% 0.00 in
12:04 41.3 °F 28.9 °F 30.30 in WSW 6.0 mph 11.0 mph 61% 0.00 in
12:09 41.4 °F 28.9 °F 30.30 in SW 8.0 mph 10.0 mph 61% 0.00 in
12:14 41.2 °F 28.8 °F 30.30 in SSE 7.0 mph 11.0 mph 61% 0.00 in
12:19 41.3 °F 29.3 °F 30.30 in WSW 5.0 mph 11.0 mph 62% 0.00 in
12:24 41.1 °F 28.3 °F 30.30 in WSW 4.0 mph 11.0 mph 60% 0.00 in
12:29 41.4 °F 29.3 °F 30.30 in WSW 6.0 mph 12.0 mph 62% 0.00 in
12:34 41.5 °F 28.6 °F 30.29 in WSW 6.0 mph 12.0 mph 60% 0.00 in
12:39 41.5 °F 29.4 °F 30.29 in SW 6.0 mph 12.0 mph 62% 0.00 in
12:44 41.4 °F 28.9 °F 30.29 in SW 5.0 mph 9.0 mph 61% 0.00 in
12:49 41.2 °F 29.5 °F 30.29 in SW 7.0 mph 9.0 mph 63% 0.00 in
12:54 41.7 °F 29.6 °F 30.29 in WSW 6.0 mph 8.0 mph 62% 0.00 in
12:59 42.0 °F 30.3 °F 30.29 in SW 4.0 mph 8.0 mph 63% 0.00 in
13:04 42.0 °F 30.3 °F 30.29 in WSW 5.0 mph 8.0 mph 63% 0.00 in
13:09 42.0 °F 29.9 °F 30.29 in SW 5.0 mph 10.0 mph 62% 0.00 in
13:14 42.3 °F 30.2 °F 30.29 in WSW 4.0 mph 8.0 mph 62% 0.00 in
13:19 42.4 °F 30.7 °F 30.28 in SW 3.0 mph 7.0 mph 63% 0.00 in
13:24 42.3 °F 30.6 °F 30.28 in SW 5.0 mph 7.0 mph 63% 0.00 in
13:29 41.9 °F 30.6 °F 30.28 in SSW 7.0 mph 7.0 mph 64% 0.00 in
13:34 41.8 °F 30.9 °F 30.28 in SW 4.0 mph 8.0 mph 65% 0.00 in
13:39 42.1 °F 30.8 °F 30.28 in SW 4.0 mph 8.0 mph 64% 0.00 in
13:44 42.5 °F 30.8 °F 30.28 in SW 3.0 mph 7.0 mph 63% 0.00 in
13:49 42.2 °F 30.9 °F 30.28 in SW 3.0 mph 7.0 mph 64% 0.00 in
13:54 41.5 °F 30.6 °F 30.28 in SW 2.0 mph 7.0 mph 65% 0.00 in
13:59 42.1 °F 30.8 °F 30.28 in WSW 1.0 mph 5.0 mph 64% 0.00 in
14:04 42.6 °F 30.9 °F 30.28 in SW 6.0 mph 7.0 mph 63% 0.00 in
14:09 42.9 °F 31.6 °F 30.28 in SW 4.0 mph 6.0 mph 64% 0.00 in
14:14 42.8 °F 30.7 °F 30.28 in SW 4.0 mph 9.0 mph 62% 0.00 in
14:19 42.9 °F 30.8 °F 30.28 in SW 4.0 mph 9.0 mph 62% 0.00 in
14:24 42.8 °F 30.7 °F 30.28 in SSE 4.0 mph 8.0 mph 62% 0.00 in
14:29 42.5 °F 30.4 °F 30.28 in West 4.0 mph 8.0 mph 62% 0.00 in
14:34 42.5 °F 30.4 °F 30.28 in WSW 1.0 mph 10.0 mph 62% 0.00 in
14:39 42.5 °F 30.4 °F 30.28 in SW 6.0 mph 9.0 mph 62% 0.00 in
14:44 42.2 °F 30.5 °F 30.28 in SW 5.0 mph 9.0 mph 63% 0.00 in
14:49 41.7 °F 30.8 °F 30.28 in SW 5.0 mph 9.0 mph 65% 0.00 in
14:54 41.6 °F 30.7 °F 30.28 in WSW 8.0 mph 8.0 mph 65% 0.00 in
14:59 41.1 °F 30.2 °F 30.28 in SW 5.0 mph 8.0 mph 65% 0.00 in
15:04 41.4 °F 31.3 °F 30.28 in SSW 3.0 mph 8.0 mph 67% 0.00 in
15:09 41.3 °F 30.8 °F 30.28 in WSW 5.0 mph 9.0 mph 66% 0.00 in
15:14 40.5 °F 30.4 °F 30.28 in SW 5.0 mph 9.0 mph 67% 0.00 in
15:20 40.5 °F 30.4 °F 30.28 in SW 5.0 mph 9.0 mph 67% 0.00 in
15:25 39.8 °F 29.7 °F 30.28 in SW 5.0 mph 8.0 mph 67% 0.00 in
15:34 39.0 °F 29.7 °F 30.28 in SW 4.0 mph 8.0 mph 69% 0.00 in
15:39 39.6 °F 30.3 °F 30.28 in WSW 3.0 mph 7.0 mph 69% 0.00 in
15:44 40.1 °F 30.4 °F 30.28 in WSW 3.0 mph 7.0 mph 68% 0.00 in
15:49 39.4 °F 30.1 °F 30.29 in SW 3.0 mph 7.0 mph 69% 0.00 in
15:54 39.0 °F 29.7 °F 30.29 in SW 4.0 mph 7.0 mph 69% 0.00 in
16:00 38.5 °F 29.6 °F 30.29 in WSW 6.0 mph 7.0 mph 70% 0.00 in
16:09 37.9 °F 29.7 °F 30.29 in SW 4.0 mph 8.0 mph 72% 0.00 in
16:14 37.4 °F 29.2 °F 30.29 in SW 4.0 mph 8.0 mph 72% 0.00 in
16:19 37.2 °F 29.3 °F 30.29 in WSW 1.0 mph 6.0 mph 73% 0.00 in
16:24 37.2 °F 29.3 °F 30.29 in SW 2.0 mph 5.0 mph 73% 0.00 in
16:29 36.7 °F 28.9 °F 30.29 in SW 3.0 mph 8.0 mph 73% 0.00 in
16:34 36.7 °F 29.2 °F 30.29 in SW 3.0 mph 8.0 mph 74% 0.00 in
16:39 36.4 °F 28.9 °F 30.30 in WSW 3.0 mph 7.0 mph 74% 0.00 in
16:44 36.3 °F 29.1 °F 30.30 in SW 4.0 mph 7.0 mph 75% 0.00 in
16:49 36.1 °F 28.9 °F 30.30 in WSW 3.0 mph 5.0 mph 75% 0.00 in
16:54 35.9 °F 28.7 °F 30.30 in WSW 3.0 mph 6.0 mph 75% 0.00 in
16:59 35.5 °F 28.4 °F 30.30 in WSW 3.0 mph 6.0 mph 75% 0.00 in
17:04 35.3 °F 28.5 °F 30.30 in WSW 3.0 mph 6.0 mph 76% 0.00 in
17:09 35.1 °F 28.6 °F 30.30 in WSW 1.0 mph 5.0 mph 77% 0.00 in
17:14 34.9 °F 28.4 °F 30.30 in WSW 5.0 mph 5.0 mph 77% 0.00 in
17:19 34.7 °F 28.5 °F 30.30 in Calm   5.0 mph 78% 0.00 in
17:24 34.4 °F 28.2 °F 30.30 in WSW 3.0 mph 3.0 mph 78% 0.00 in
17:29 34.3 °F 28.5 °F 30.30 in WSW 2.0 mph 4.0 mph 79% 0.00 in
17:34 34.1 °F 28.3 °F 30.30 in WSW 2.0 mph 4.0 mph 79% 0.00 in
17:39 33.8 °F 28.0 °F 30.30 in WSW 1.0 mph 3.0 mph 79% 0.00 in
17:44 33.5 °F 27.7 °F 30.30 in WSW 1.0 mph 2.0 mph 79% 0.00 in
17:49 33.2 °F 27.7 °F 30.31 in Calm   2.0 mph 80% 0.00 in
17:54 33.0 °F 27.8 °F 30.31 in Calm     81% 0.00 in
17:59 32.9 °F 27.7 °F 30.31 in WSW 2.0 mph 3.0 mph 81% 0.00 in
18:04 33.0 °F 27.8 °F 30.32 in Calm   2.0 mph 81% 0.00 in
18:09 32.9 °F 27.7 °F 30.32 in Calm   2.0 mph 81% 0.00 in
18:14 32.9 °F 28.0 °F 30.32 in Calm   3.0 mph 82% 0.00 in
18:19 32.7 °F 27.8 °F 30.32 in WSW 1.0 mph 3.0 mph 82% 0.00 in
18:24 32.6 °F 27.7 °F 30.32 in Calm   2.0 mph 82% 0.00 in
18:29 32.5 °F 27.6 °F 30.33 in Calm   2.0 mph 82% 0.00 in
18:34 32.1 °F 27.2 °F 30.33 in Calm   1.0 mph 82% 0.00 in
18:39 31.9 °F 27.3 °F 30.33 in Calm     83% 0.00 in
18:44 31.8 °F 27.2 °F 30.33 in Calm     83% 0.00 in
18:49 31.7 °F 27.4 °F 30.33 in Calm     84% 0.00 in
18:54 31.8 °F 27.5 °F 30.33 in Calm     84% 0.00 in
18:59 31.9 °F 27.6 °F 30.33 in Calm     84% 0.00 in
19:04 32.2 °F 28.2 °F 30.33 in Calm   1.0 mph 85% 0.00 in
19:09 32.7 °F 28.7 °F 30.34 in Calm   2.0 mph 85% 0.00 in
19:14 33.4 °F 29.4 °F 30.34 in West 1.0 mph 3.0 mph 85% 0.00 in
19:19 33.9 °F 29.6 °F 30.34 in NW 1.0 mph 5.0 mph 84% 0.00 in
19:24 34.2 °F 29.6 °F 30.34 in NNW 1.0 mph 5.0 mph 83% 0.00 in
19:29 34.4 °F 29.8 °F 30.35 in North 1.0 mph 4.0 mph 83% 0.00 in
19:34 34.4 °F 29.5 °F 30.35 in NE 2.0 mph 8.0 mph 82% 0.00 in
19:39 34.1 °F 28.6 °F 30.35 in NNE 2.0 mph 8.0 mph 80% 0.00 in
19:44 34.0 °F 28.2 °F 30.35 in NE 3.0 mph 8.0 mph 79% 0.00 in
19:49 34.0 °F 28.2 °F 30.35 in NE 2.0 mph 5.0 mph 79% 0.00 in
19:54 33.9 °F 27.8 °F 30.35 in NE 5.0 mph 5.0 mph 78% 0.00 in
19:59 33.8 °F 27.7 °F 30.35 in NE 3.0 mph 7.0 mph 78% 0.00 in
20:04 33.7 °F 27.6 °F 30.35 in NE 1.0 mph 5.0 mph 78% 0.00 in
20:09 33.6 °F 27.5 °F 30.35 in NE 1.0 mph 4.0 mph 78% 0.00 in
20:14 33.4 °F 27.3 °F 30.35 in NE 3.0 mph 3.0 mph 78% 0.00 in
20:19 33.3 °F 27.2 °F 30.35 in NE 1.0 mph 5.0 mph 78% 0.00 in
20:24 33.3 °F 27.5 °F 30.35 in NE 2.0 mph 5.0 mph 79% 0.00 in
20:29 33.3 °F 27.5 °F 30.35 in NE 2.0 mph 4.0 mph 79% 0.00 in
20:34 33.2 °F 27.4 °F 30.35 in NE 2.0 mph 4.0 mph 79% 0.00 in
20:39 33.1 °F 27.3 °F 30.35 in NE 2.0 mph 4.0 mph 79% 0.00 in
20:44 33.0 °F 27.2 °F 30.35 in NE 2.0 mph 4.0 mph 79% 0.00 in
20:49 32.8 °F 27.0 °F 30.36 in NE 1.0 mph 3.0 mph 79% 0.00 in
20:54 32.7 °F 26.9 °F 30.36 in NE 1.0 mph 3.0 mph 79% 0.00 in
20:59 32.5 °F 27.0 °F 30.36 in NE 1.0 mph 4.0 mph 80% 0.00 in
21:04 32.5 °F 27.0 °F 30.36 in NE 1.0 mph 2.0 mph 80% 0.00 in
21:09 32.4 °F 26.9 °F 30.36 in NE 2.0 mph 4.0 mph 80% 0.00 in
21:14 32.2 °F 26.7 °F 30.35 in NE 2.0 mph 4.0 mph 80% 0.00 in
21:19 32.1 °F 26.6 °F 30.36 in NE 3.0 mph 4.0 mph 80% 0.00 in
21:24 32.0 °F 26.5 °F 30.35 in NE 2.0 mph 4.0 mph 80% 0.00 in
21:29 31.8 °F 26.3 °F 30.36 in NE 1.0 mph 4.0 mph 80% 0.00 in
21:34 31.7 °F 26.2 °F 30.35 in NE 1.0 mph 3.0 mph 80% 0.00 in
21:39 31.5 °F 26.0 °F 30.36 in NE 1.0 mph 3.0 mph 80% 0.00 in
21:44 31.5 °F 26.0 °F 30.36 in NE 2.0 mph 4.0 mph 80% 0.00 in
21:49 31.5 °F 26.3 °F 30.36 in NE 3.0 mph 5.0 mph 81% 0.00 in
21:54 31.6 °F 26.4 °F 30.36 in NE 1.0 mph 4.0 mph 81% 0.00 in
21:59 31.5 °F 26.3 °F 30.36 in NE 2.0 mph 5.0 mph 81% 0.00 in
22:04 31.4 °F 25.9 °F 30.36 in NE 2.0 mph 5.0 mph 80% 0.00 in
22:09 31.4 °F 25.9 °F 30.36 in NE 1.0 mph 5.0 mph 80% 0.00 in
22:14 31.3 °F 25.8 °F 30.36 in NE 2.0 mph 3.0 mph 80% 0.00 in
22:19 31.2 °F 25.7 °F 30.36 in ENE 1.0 mph 4.0 mph 80% 0.00 in
22:24 31.0 °F 25.6 °F 30.36 in ENE 3.0 mph 3.0 mph 80% 0.00 in
22:29 30.8 °F 25.4 °F 30.36 in NE 2.0 mph 3.0 mph 80% 0.00 in
22:34 30.7 °F 25.3 °F 30.36 in NE 2.0 mph 3.0 mph 80% 0.00 in
22:39 30.6 °F 25.2 °F 30.36 in NE 2.0 mph 4.0 mph 80% 0.00 in
22:44 30.6 °F 25.2 °F 30.36 in NE 2.0 mph 4.0 mph 80% 0.00 in
22:49 30.5 °F 25.1 °F 30.36 in NE 2.0 mph 4.0 mph 80% 0.00 in
22:54 30.5 °F 25.1 °F 30.35 in NE 4.0 mph 5.0 mph 80% 0.00 in
22:59 30.4 °F 25.0 °F 30.35 in NE 2.0 mph 5.0 mph 80% 0.00 in
23:04 30.4 °F 25.0 °F 30.35 in NE 2.0 mph 6.0 mph 80% 0.00 in
23:09 30.3 °F 24.9 °F 30.35 in Calm   4.0 mph 80% 0.00 in
23:14 30.2 °F 24.8 °F 30.35 in ENE 1.0 mph 3.0 mph 80% 0.00 in
23:19 30.1 °F 24.4 °F 30.35 in NE 3.0 mph 4.0 mph 79% 0.00 in
23:24 29.9 °F 24.2 °F 30.35 in NE 2.0 mph 4.0 mph 79% 0.00 in
23:29 29.8 °F 24.1 °F 30.35 in NE 2.0 mph 5.0 mph 79% 0.00 in
23:34 29.7 °F 24.0 °F 30.35 in NE 2.0 mph 5.0 mph 79% 0.00 in
23:39 29.7 °F 24.0 °F 30.35 in NE 2.0 mph 4.0 mph 79% 0.00 in
23:44 29.6 °F 23.9 °F 30.35 in NE 3.0 mph 5.0 mph 79% 0.00 in
23:49 29.4 °F 23.4 °F 30.35 in NE 2.0 mph 5.0 mph 78% 0.00 in
23:54 29.3 °F 23.6 °F 30.35 in NE 2.0 mph 4.0 mph 79% 0.00 in
23:59 29.3 °F 23.6 °F 30.35 in NE 2.0 mph 4.0 mph 79% 0.00 in
Buffalo, New York, USA
Compliments of Weather Underground - 2.5 mb